Time;durP1;ratioP1;P1;durP2;ratioP2;P2;SDS_P1;SDS_P2;PMS_P1;PMS_P2;Temp;Humidity;BMP_temperature;BMP_pressure;BME280_temperature;BME280_humidity;BME280_pressure;Samples;Min_cycle;Max_cycle;Signal;HPM_P1;HPM_P2
2022/05/19 00:01:01;;;;;;;25.47;18.17;;;;;;;-145.18;100.00;46683.84;4990163;28;20391;-72
2022/05/19 00:03:25;;;;;;;23.23;18.63;;;;;;;-145.18;100.00;46685.78;4989896;28;20380;-72
2022/05/19 00:05:51;;;;;;;31.00;17.83;;;;;;;-145.18;100.00;46693.59;4989983;28;20049;-72
2022/05/19 00:08:16;;;;;;;30.73;16.30;;;;;;;-145.18;100.00;46695.56;4972591;28;20027;-72
2022/05/19 00:10:42;;;;;;;27.80;17.17;;;;;;;-145.18;100.00;46687.75;4990017;28;20031;-72
2022/05/19 00:13:08;;;;;;;30.00;17.43;;;;;;;-145.18;100.00;46683.84;4990107;28;20031;-72
2022/05/19 00:15:33;;;;;;;25.37;17.10;;;;;;;-145.18;100.00;46687.75;4990130;28;20042;-72
2022/05/19 00:17:58;;;;;;;24.20;16.43;;;;;;;-145.18;100.00;46681.88;4972257;28;20165;-72
2022/05/19 00:20:24;;;;;;;27.90;17.43;;;;;;;-145.18;100.00;46683.84;4989960;28;20030;-72
2022/05/19 00:22:49;;;;;;;27.00;17.07;;;;;;;-145.18;100.00;46685.78;4989631;28;20046;-72
2022/05/19 00:25:14;;;;;;;27.47;16.97;;;;;;;-145.18;100.00;46685.78;4990098;28;20499;-72
2022/05/19 00:27:40;;;;;;;25.67;16.93;;;;;;;-145.18;100.00;46687.75;4989634;28;20491;-72
2022/05/19 00:30:05;;;;;;;23.20;17.77;;;;;;;-145.18;100.00;46683.84;4990076;28;20109;-72
2022/05/19 00:32:31;;;;;;;25.40;18.23;;;;;;;-145.18;100.00;46685.78;4989820;28;20042;-72
2022/05/19 00:34:56;;;;;;;23.87;18.00;;;;;;;-145.18;100.00;46691.66;4972255;28;20450;-72
2022/05/19 00:37:22;;;;;;;26.23;17.10;;;;;;;-145.18;100.00;46685.78;4989573;28;20041;-73
2022/05/19 00:39:47;;;;;;;25.20;17.93;;;;;;;-145.18;100.00;46685.78;4989273;28;20050;-73
2022/05/19 00:44:59;;;;;;;25.10;19.00;;;;;;;-145.18;100.00;46689.69;4991279;28;20550;-73
2022/05/19 00:47:27;;;;;;;32.27;17.97;;;;;;;-145.18;100.00;46691.66;4993394;28;20035;-72
2022/05/19 00:49:53;;;;;;;27.77;18.17;;;;;;;-145.18;100.00;46685.78;4993409;28;20065;-73
2022/05/19 00:52:27;;;;;;;35.33;19.70;;;;;;;-145.18;100.00;46689.69;4993157;28;20116;-73
2022/05/19 00:55:15;;;;;;;28.67;19.17;;;;;;;-145.18;100.00;46683.84;4993170;28;20034;-73
2022/05/19 00:57:45;;;;;;;26.60;18.07;;;;;;;-145.18;100.00;46689.69;4993013;28;20081;-72
2022/05/19 01:00:22;;;;;;;26.73;19.47;;;;;;;-145.18;100.00;46693.59;4993416;28;20037;-72
2022/05/19 01:02:57;;;;;;;28.77;19.60;;;;;;;-145.18;100.00;46689.69;4992597;28;20475;-72
2022/05/19 01:05:25;;;;;;;;;;;;;;;-145.18;100.00;46691.66;4987436;28;20035;-72
2022/05/19 01:08:00;;;;;;;28.03;20.30;;;;;;;-145.18;100.00;46683.84;4973375;28;19918;-72
2022/05/19 01:10:25;;;;;;;32.10;21.23;;;;;;;-145.18;100.00;46691.66;4974112;28;20030;-72
2022/05/19 01:12:53;;;;;;;30.70;21.03;;;;;;;-145.18;100.00;46691.66;4973239;28;20045;-72
2022/05/19 01:15:18;;;;;;;34.00;20.80;;;;;;;-145.18;100.00;46687.75;4973558;28;20582;-72
2022/05/19 01:17:44;;;;;;;32.53;20.40;;;;;;;-145.18;100.00;46689.69;4973146;28;20041;-72
2022/05/19 01:20:15;;;;;;;34.83;21.40;;;;;;;-145.18;100.00;46689.69;4973742;28;20662;-72
2022/05/19 01:22:48;;;;;;;33.57;20.73;;;;;;;-145.18;100.00;46691.66;4972829;28;20058;-72
2022/05/19 01:25:31;;;;;;;28.13;21.23;;;;;;;-145.18;100.00;46691.66;4973339;28;20435;-72
2022/05/19 01:27:57;;;;;;;31.43;21.00;;;;;;;-145.18;100.00;46691.66;4972984;28;20030;-73
2022/05/19 01:30:23;;;;;;;30.50;21.77;;;;;;;-145.18;100.00;46695.56;4973523;28;20432;-72
2022/05/19 01:32:48;;;;;;;32.13;21.60;;;;;;;-145.18;100.00;46691.66;4972837;28;20110;-72
2022/05/19 01:35:13;;;;;;;34.07;21.17;;;;;;;-145.18;100.00;46691.66;4973112;28;20514;-73
2022/05/19 01:37:39;;;;;;;29.40;21.43;;;;;;;-145.18;100.00;46697.50;4972790;28;20122;-72
2022/05/19 01:40:18;;;;;;;29.37;20.83;;;;;;;-145.18;100.00;46693.59;4973396;28;20051;-72
2022/05/19 01:43:00;;;;;;;31.70;20.97;;;;;;;-145.18;100.00;46691.66;4972591;28;20037;-73
2022/05/19 01:45:54;;;;;;;31.90;21.23;;;;;;;-145.18;100.00;46693.59;4973035;28;20045;-73
2022/05/19 01:48:37;;;;;;;34.93;22.00;;;;;;;-145.18;100.00;46693.59;4972783;28;20031;-73
2022/05/19 01:51:24;;;;;;;32.67;21.73;;;;;;;-145.18;100.00;46693.59;4973362;28;20058;-72
2022/05/19 01:53:52;;;;;;;40.10;23.27;;;;;;;-145.18;100.00;46693.59;4972952;28;20038;-72
2022/05/19 01:56:53;;;;;;;29.10;21.03;;;;;;;-145.18;100.00;46695.56;4972311;28;20031;-73
2022/05/19 01:59:29;;;;;;;29.53;21.77;;;;;;;-145.18;100.00;46691.66;4966113;28;20074;-73
2022/05/19 02:02:05;;;;;;;33.20;21.70;;;;;;;-145.18;100.00;46697.50;5230744;22;20604;-72
2022/05/19 02:04:50;;;;;;;37.60;22.27;;;;;;;-145.18;100.00;46689.69;4965621;28;20171;-72
2022/05/19 02:07:17;;;;;;;31.80;21.87;;;;;;;-145.18;100.00;46691.66;4972209;28;20038;-72
2022/05/19 02:09:52;;;;;;;35.83;22.43;;;;;;;-145.18;100.00;46691.66;4957600;28;20140;-72
2022/05/19 02:12:17;;;;;;;35.53;22.00;;;;;;;-145.18;100.00;46693.59;4952732;29;20031;-72
2022/05/19 02:14:48;;;;;;;30.07;22.37;;;;;;;-145.18;100.00;46689.69;4953694;29;20043;-72
2022/05/19 02:17:17;;;;;;;34.77;23.30;;;;;;;-145.18;100.00;46695.56;4952586;29;20031;-72
2022/05/19 02:19:47;;;;;;;33.40;22.50;;;;;;;-145.18;100.00;46693.59;4953382;29;20027;-72
2022/05/19 02:22:16;;;;;;;33.23;22.87;;;;;;;-145.18;100.00;46695.56;4952678;29;20492;-72
2022/05/19 02:24:47;;;;;;;30.13;21.40;;;;;;;-145.18;100.00;46695.56;4953232;29;20130;-72
2022/05/19 02:27:25;;;;;;;33.43;22.40;;;;;;;-145.18;100.00;46691.66;4952348;29;20496;-72
2022/05/19 02:29:51;;;;;;;37.23;25.57;;;;;;;-145.18;100.00;46689.69;4953173;29;20039;-72
2022/05/19 02:32:17;;;;;;;46.57;25.33;;;;;;;-145.18;100.00;46689.69;4952425;29;20041;-72
2022/05/19 02:34:43;;;;;;;38.57;23.90;;;;;;;-145.18;100.00;46695.56;4953202;29;20031;-72
2022/05/19 02:37:08;;;;;;;32.27;21.77;;;;;;;-145.18;100.00;46695.56;4952464;29;20424;-72
2022/05/19 02:39:33;;;;;;;40.33;25.73;;;;;;;-145.18;100.00;46699.47;4951579;29;20545;-72
2022/05/19 02:41:59;;;;;;;33.83;20.03;;;;;;;-145.18;100.00;46685.78;4952434;28;20042;-72
2022/05/19 02:44:24;;;;;;;30.13;14.30;;;;;;;-145.18;100.00;46685.78;4983139;28;20436;-74
2022/05/19 02:46:49;;;;;;;12.03;4.23;;;;;;;-145.18;100.00;46687.75;4967058;28;20030;-74
2022/05/19 02:49:15;;;;;;;7.07;2.63;;;;;;;-145.18;100.00;46689.69;4962321;28;20083;-73
2022/05/19 02:51:40;;;;;;;11.97;3.77;;;;;;;-145.18;100.00;46672.13;4936344;29;20393;-76
2022/05/19 02:54:06;;;;;;;14.73;2.47;;;;;;;-145.18;100.00;46662.34;4954163;28;20094;-74
2022/05/19 02:56:31;;;;;;;14.23;3.00;;;;;;;-145.18;100.00;46662.34;4972082;28;20102;-72
2022/05/19 02:58:56;;;;;;;8.10;2.33;;;;;;;-145.18;100.00;46660.41;4971351;28;20093;-72
2022/05/19 03:01:22;;;;;;;7.70;1.90;;;;;;;-145.18;100.00;46654.53;4972658;28;20499;-73
2022/05/19 03:03:48;;;;;;;6.03;2.60;;;;;;;-145.18;100.00;46652.59;4972379;28;20538;-72
2022/05/19 03:06:13;;;;;;;4.80;2.20;;;;;;;-145.18;100.00;46650.63;4972237;28;20038;-71
2022/05/19 03:08:39;;;;;;;6.03;2.50;;;;;;;-145.18;100.00;46654.53;4970811;28;20042;-70
2022/05/19 03:11:04;;;;;;;5.97;2.40;;;;;;;-145.18;100.00;46650.63;4971588;28;20125;-73
2022/05/19 03:13:29;;;;;;;6.53;2.30;;;;;;;-145.18;100.00;46658.44;4971496;28;20546;-72
2022/05/19 03:15:55;;;;;;;8.77;2.90;;;;;;;-145.18;100.00;46654.53;4971885;28;20070;-74
2022/05/19 03:18:21;;;;;;;8.73;2.20;;;;;;;-145.18;100.00;46654.53;4954186;28;20542;-72
2022/05/19 03:20:46;;;;;;;4.77;2.90;;;;;;;-145.18;100.00;46656.50;4971836;28;20121;-71
2022/05/19 03:23:12;;;;;;;13.87;2.90;;;;;;;-145.18;100.00;46652.59;4971237;28;20039;-71
2022/05/19 03:25:37;;;;;;;4.70;2.60;;;;;;;-145.18;100.00;46650.63;4971929;28;20063;-71
2022/05/19 03:28:03;;;;;;;7.73;2.77;;;;;;;-145.18;100.00;46648.69;4971628;28;20033;-69
2022/05/19 03:30:28;;;;;;;6.53;3.40;;;;;;;-145.18;100.00;46648.69;4971858;28;20034;-69
2022/05/19 03:32:54;;;;;;;9.57;3.10;;;;;;;-145.18;100.00;46650.63;4953892;28;20035;-71
2022/05/19 03:35:19;;;;;;;8.87;3.37;;;;;;;-145.18;100.00;46644.78;4971048;28;20037;-73
2022/05/19 03:37:45;;;;;;;10.10;2.97;;;;;;;-145.18;100.00;46648.69;4970799;28;20109;-72
2022/05/19 03:40:12;;;;;;;7.33;3.20;;;;;;;-145.18;100.00;46650.63;4971328;28;20839;-68
2022/05/19 03:42:38;;;;;;;9.27;3.10;;;;;;;-145.18;100.00;46652.59;4971459;28;20042;-69
2022/05/19 03:45:05;;;;;;;4.77;2.00;;;;;;;-145.18;100.00;46648.69;4968501;28;20567;-70
2022/05/19 03:47:31;;;;;;;4.77;2.90;;;;;;;-145.18;100.00;46646.72;4967422;28;20432;-69
2022/05/19 03:49:56;;;;;;;9.27;3.13;;;;;;;-145.18;100.00;46646.72;4964622;28;20023;-70
2022/05/19 03:52:22;;;;;;;4.63;2.60;;;;;;;-145.18;100.00;46650.63;4970113;28;20581;-70
2022/05/19 03:54:47;;;;;;;5.60;2.60;;;;;;;-145.18;100.00;46646.72;4962954;28;20043;-70
2022/05/19 03:57:13;;;;;;;5.23;2.10;;;;;;;-145.18;100.00;46648.69;4958274;28;20554;-71
2022/05/19 03:59:39;;;;;;;3.93;1.70;;;;;;;-145.18;100.00;46644.78;4954929;28;20035;-70
2022/05/19 04:02:04;;;;;;;4.13;2.37;;;;;;;-145.18;100.00;46656.50;4959680;28;20031;-71
2022/05/19 04:04:30;;;;;;;3.53;1.80;;;;;;;-145.18;100.00;46646.72;4966185;28;20046;-71
2022/05/19 04:06:55;;;;;;;4.27;2.20;;;;;;;-145.18;100.00;46646.72;4958322;28;20479;-72
2022/05/19 04:09:21;;;;;;;4.83;1.93;;;;;;;-145.18;100.00;46648.69;4980167;28;20376;-72
2022/05/19 04:11:46;;;;;;;4.43;1.90;;;;;;;-145.18;100.00;46650.63;4971025;28;20053;-72
2022/05/19 04:14:12;;;;;;;4.00;1.90;;;;;;;-145.18;100.00;46652.59;4966318;28;20060;-71
2022/05/19 04:16:38;;;;;;;5.47;2.07;;;;;;;-145.18;100.00;46654.53;4971348;28;20050;-71
2022/05/19 04:19:04;;;;;;;10.10;2.47;;;;;;;-145.18;100.00;46650.63;4954626;28;20065;-70
2022/05/19 04:21:30;;;;;;;6.17;2.20;;;;;;;-145.18;100.00;46654.53;4973943;28;20118;-69
2022/05/19 04:23:56;;;;;;;3.93;2.53;;;;;;;-145.18;100.00;46652.59;4962225;28;20453;-69
2022/05/19 04:26:22;;;;;;;7.63;2.70;;;;;;;-145.18;100.00;46650.63;4955906;29;20035;-69
2022/05/19 04:28:48;;;;;;;6.60;2.93;;;;;;;-145.18;100.00;46648.69;4969738;28;20023;-69
2022/05/19 04:31:13;;;;;;;5.67;2.70;;;;;;;-145.18;100.00;46650.63;4974765;28;20066;-69
2022/05/19 04:33:39;;;;;;;6.43;3.57;;;;;;;-145.18;100.00;46644.78;4972934;28;20137;-69
2022/05/19 04:36:04;;;;;;;10.20;3.50;;;;;;;-145.18;100.00;46650.63;4968541;28;20077;-69
2022/05/19 04:38:30;;;;;;;6.77;2.87;;;;;;;-145.18;100.00;46644.78;4971901;28;20464;-69
2022/05/19 04:41:00;;;;;;;6.43;4.10;;;;;;;-145.18;100.00;46644.78;4971590;28;20097;-70
2022/05/19 04:43:26;;;;;;;10.37;3.53;;;;;;;-145.18;100.00;46644.78;4968210;28;20045;-71
2022/05/19 04:45:53;;;;;;;7.53;3.53;;;;;;;-145.18;100.00;46648.69;4972310;28;20121;-71
2022/05/19 04:48:19;;;;;;;7.27;3.43;;;;;;;-145.18;100.00;46646.72;4971708;28;20572;-71
2022/05/19 04:50:44;;;;;;;7.97;3.77;;;;;;;-145.18;100.00;46646.72;4973817;28;20029;-71
2022/05/19 04:53:10;;;;;;;11.03;3.80;;;;;;;-145.18;100.00;46650.63;4973307;28;20034;-71
2022/05/19 04:55:38;;;;;;;6.90;3.63;;;;;;;-145.18;100.00;46644.78;4956820;28;20058;-72
2022/05/19 04:58:05;;;;;;;7.83;3.80;;;;;;;-145.18;100.00;46642.81;4973688;28;20041;-72
2022/05/19 05:00:30;;;;;;;6.83;4.17;;;;;;;-145.18;100.00;46646.72;4974283;28;20472;-72
2022/05/19 05:02:55;;;;;;;9.50;4.63;;;;;;;-145.18;100.00;46640.88;4972641;28;20113;-72
2022/05/19 05:05:23;;;;;;;7.03;4.27;;;;;;;-145.18;100.00;46644.78;4973854;28;20039;-72
2022/05/19 05:07:48;;;;;;;8.33;4.70;;;;;;;-145.18;100.00;46644.78;4972775;28;20111;-71
2022/05/19 05:10:14;;;;;;;6.43;5.10;;;;;;;-145.18;100.00;46644.78;4973757;28;20126;-71
2022/05/19 05:12:39;;;;;;;8.13;4.60;;;;;;;-145.18;100.00;46638.91;4970076;28;20039;-71
2022/05/19 05:15:05;;;;;;;9.77;4.90;;;;;;;-145.18;100.00;46638.91;4970327;28;20094;-71
2022/05/19 05:17:31;;;;;;;8.33;4.70;;;;;;;-145.18;100.00;46640.88;4973025;28;20074;-71
2022/05/19 05:19:57;;;;;;;9.27;5.17;;;;;;;-145.18;100.00;46636.94;4972877;28;20073;-71
2022/05/19 05:22:22;;;;;;;9.10;4.97;;;;;;;-145.18;100.00;46640.88;4970457;28;20081;-71
2022/05/19 05:24:47;;;;;;;9.40;4.97;;;;;;;-145.18;100.00;46636.94;4972359;28;20037;-71
2022/05/19 05:27:13;;;;;;;9.00;5.00;;;;;;;-145.18;100.00;46638.91;4972576;28;20041;-71
2022/05/19 05:29:38;;;;;;;9.07;5.60;;;;;;;-145.18;100.00;46638.91;4965347;28;20480;-71
2022/05/19 05:32:04;;;;;;;11.67;6.00;;;;;;;-145.18;100.00;46638.91;4953495;29;20114;-71
2022/05/19 05:34:30;;;;;;;7.60;5.20;;;;;;;-145.18;100.00;46636.94;4953852;28;20066;-71
2022/05/19 05:36:55;;;;;;;9.67;5.30;;;;;;;-145.18;100.00;46635.00;4953947;29;20484;-71
2022/05/19 05:39:21;;;;;;;9.83;5.97;;;;;;;-145.18;100.00;46631.09;4952271;29;20040;-71
2022/05/19 05:41:47;;;;;;;10.67;6.23;;;;;;;-145.18;100.00;46635.00;4971394;28;20042;-71
2022/05/19 05:44:12;;;;;;;7.83;5.87;;;;;;;-145.18;100.00;46636.94;4955168;28;20038;-71
2022/05/19 05:46:38;;;;;;;7.53;4.73;;;;;;;-145.18;100.00;46633.06;4973312;28;20046;-71
2022/05/19 05:49:04;;;;;;;7.73;5.40;;;;;;;-145.18;100.00;46633.06;4972948;28;20114;-71
2022/05/19 05:51:29;;;;;;;7.30;5.47;;;;;;;-145.18;100.00;46631.09;4973098;28;20070;-70
2022/05/19 05:53:54;;;;;;;10.90;5.77;;;;;;;-145.18;100.00;46633.06;4971880;28;20060;-70
2022/05/19 05:56:21;;;;;;;11.33;6.03;;;;;;;-145.18;100.00;46636.94;4973388;28;20058;-70
2022/05/19 05:58:47;;;;;;;11.63;5.93;;;;;;;-145.18;100.00;46633.06;4973168;28;20045;-70
2022/05/19 06:01:15;;;;;;;11.73;5.90;;;;;;;-145.18;100.00;46636.94;4972812;28;20118;-70
2022/05/19 06:03:41;;;;;;;15.40;5.43;;;;;;;-145.18;100.00;46633.06;4973206;28;20050;-70
2022/05/19 06:06:07;;;;;;;8.63;5.50;;;;;;;-145.18;100.00;46633.06;4973235;28;20034;-71
2022/05/19 06:08:33;;;;;;;10.17;5.73;;;;;;;-145.18;100.00;46635.00;4972672;28;20035;-70
2022/05/19 06:10:59;;;;;;;9.73;6.00;;;;;;;-145.18;100.00;46633.06;4973073;28;20035;-70
2022/05/19 06:13:25;;;;;;;6.97;5.93;;;;;;;-145.18;100.00;46635.00;4972707;28;20559;-70
2022/05/19 06:15:51;;;;;;;11.57;6.20;;;;;;;-145.18;100.00;46635.00;4973346;28;20106;-70
2022/05/19 06:18:16;;;;;;;9.07;5.87;;;;;;;-145.18;100.00;46631.09;4972403;28;20488;-70
2022/05/19 06:20:42;;;;;;;9.20;6.13;;;;;;;-145.18;100.00;46633.06;4972896;28;20035;-70
2022/05/19 06:23:08;;;;;;;9.77;6.07;;;;;;;-145.18;100.00;46635.00;4972131;28;20122;-70
2022/05/19 06:25:35;;;;;;;8.93;6.00;;;;;;;-145.18;100.00;46633.06;4970602;28;20041;-71
2022/05/19 06:28:00;;;;;;;9.60;5.77;;;;;;;-145.18;100.00;46631.09;4966062;28;20182;-70
2022/05/19 06:30:27;;;;;;;8.60;6.33;;;;;;;-145.18;100.00;46633.06;4972471;28;20042;-71
2022/05/19 06:32:53;;;;;;;13.77;6.17;;;;;;;-145.18;100.00;46631.09;4971580;28;20097;-70
2022/05/19 06:35:24;;;;;;;11.57;6.33;;;;;;;-145.18;100.00;46633.06;4972490;28;20030;-71
2022/05/19 06:37:50;;;;;;;9.60;6.37;;;;;;;-145.18;100.00;46633.06;4972279;28;20062;-71
2022/05/19 06:40:16;;;;;;;9.27;6.87;;;;;;;-145.18;100.00;46629.13;4971491;28;20074;-71
2022/05/19 06:42:43;;;;;;;10.80;7.67;;;;;;;-145.18;100.00;46633.06;4970873;28;20602;-70
2022/05/19 06:45:09;;;;;;;9.00;6.97;;;;;;;-145.18;100.00;46633.06;4971934;28;20034;-71
2022/05/19 06:47:36;;;;;;;12.97;6.67;;;;;;;-145.18;100.00;46633.06;4972445;28;20492;-70
2022/05/19 06:50:04;;;;;;;8.30;6.30;;;;;;;-145.18;100.00;46629.13;4971416;28;20039;-70
2022/05/19 06:52:48;;;;;;;12.57;6.07;;;;;;;-145.18;100.00;46631.09;4971814;28;20642;-71
2022/05/19 06:55:16;;;;;;;10.67;5.37;;;;;;;-145.18;100.00;46636.94;4952439;28;20039;-71
2022/05/19 06:57:43;;;;;;;8.10;6.60;;;;;;;-145.18;100.00;46638.91;4958662;28;20042;-71
2022/05/19 07:00:11;;;;;;;6.87;4.87;;;;;;;-145.18;100.00;46633.06;4966118;28;20034;-71
2022/05/19 07:02:43;;;;;;;6.53;5.40;;;;;;;-145.18;100.00;46635.00;4959949;28;20070;-70
2022/05/19 07:05:08;;;;;;;10.10;5.20;;;;;;;-145.18;100.00;46636.94;4970871;28;20465;-71
2022/05/19 07:07:34;;;;;;;8.07;5.40;;;;;;;-145.18;100.00;46636.94;4971532;28;20043;-71
2022/05/19 07:09:59;;;;;;;8.97;6.13;;;;;;;-145.18;100.00;46642.81;4971313;28;20581;-71
2022/05/19 07:12:25;;;;;;;6.33;5.17;;;;;;;-145.18;100.00;46644.78;4972016;28;20058;-71
2022/05/19 07:14:51;;;;;;;8.30;5.73;;;;;;;-145.18;100.00;46646.72;4971055;28;20060;-71
2022/05/19 07:17:17;;;;;;;8.47;5.33;;;;;;;-145.18;100.00;46650.63;4971500;28;20069;-71
2022/05/19 07:22:28;;;;;;;6.27;4.97;;;;;;;-145.18;100.00;46660.41;4971989;28;20123;-71
2022/05/19 07:24:54;;;;;;;6.67;5.47;;;;;;;-145.18;100.00;46660.41;4970840;28;20655;-71
2022/05/19 07:27:19;;;;;;;10.10;6.03;;;;;;;-145.18;100.00;46656.50;4953139;28;20043;-69
2022/05/19 07:29:45;;;;;;;8.53;5.60;;;;;;;-145.18;100.00;46658.44;4952081;29;20191;-71
2022/05/19 07:32:10;;;;;;;6.57;5.30;;;;;;;-145.18;100.00;46660.41;4952231;29;20089;-71
2022/05/19 07:34:39;;;;;;;7.13;5.23;;;;;;;-145.18;100.00;46662.34;4942548;28;20118;-71
2022/05/19 07:37:05;;;;;;;8.43;5.97;;;;;;;-145.18;100.00;46658.44;4951871;29;20495;-71
2022/05/19 07:39:30;;;;;;;10.50;5.70;;;;;;;-145.18;100.00;46656.50;4954960;28;20043;-71
2022/05/19 07:41:57;;;;;;;7.17;5.87;;;;;;;-145.18;100.00;46644.78;4970135;28;20067;-71
2022/05/19 07:44:25;;;;;;;7.77;6.00;;;;;;;-145.18;100.00;46652.59;4970911;28;20038;-71
2022/05/19 07:46:50;;;;;;;14.20;6.67;;;;;;;-145.18;100.00;46640.88;4970423;28;20134;-71
2022/05/19 07:49:16;;;;;;;10.53;6.10;;;;;;;-145.18;100.00;46644.78;4970527;28;20110;-71
2022/05/19 07:51:43;;;;;;;8.67;5.97;;;;;;;-145.18;100.00;46635.00;4970850;28;20046;-71
2022/05/19 07:54:15;;;;;;;6.70;5.40;;;;;;;-145.18;100.00;46572.50;4968986;28;20027;-71
2022/05/19 07:56:42;;;;;;;6.40;5.00;;;;;;;-145.18;100.00;46547.09;4970669;28;20050;-71
2022/05/19 07:59:08;;;;;;;8.00;5.90;;;;;;;-145.18;100.00;46543.19;4969998;28;20031;-71
2022/05/19 08:01:34;;;;;;;14.77;6.33;;;;;;;-145.18;100.00;46539.28;4970164;28;20122;-71
2022/05/19 08:03:59;;;;;;;7.37;5.47;;;;;;;-145.18;100.00;46549.06;4969730;28;20138;-70
2022/05/19 08:06:28;;;;;;;9.27;5.30;;;;;;;-145.18;100.00;46547.09;4971094;28;20069;-71
2022/05/19 08:08:53;;;;;;;8.57;5.73;;;;;;;-145.18;100.00;46539.28;4970859;28;20034;-71
2022/05/19 08:11:22;;;;;;;8.10;6.07;;;;;;;-145.18;100.00;46545.16;4970770;28;20121;-71
2022/05/19 08:16:31;;;;;;;8.43;7.07;;;;;;;-145.18;100.00;46539.28;4971152;28;20094;-71
2022/05/19 08:18:57;;;;;;;8.80;6.83;;;;;;;-145.18;100.00;46533.44;4970530;28;20042;-71
2022/05/19 08:21:22;;;;;;;8.53;6.53;;;;;;;-145.18;100.00;46547.09;4970921;28;20066;-70
2022/05/19 08:23:50;;;;;;;9.00;6.43;;;;;;;-145.18;100.00;46541.25;4970010;28;20058;-70
2022/05/19 08:26:16;;;;;;;11.53;7.10;;;;;;;-145.18;100.00;46535.38;4969937;28;20082;-71
2022/05/19 08:28:43;;;;;;;10.47;7.13;;;;;;;-145.18;100.00;46541.25;4969501;28;20038;-71
2022/05/19 08:31:12;;;;;;;9.77;7.37;;;;;;;-145.18;100.00;46547.09;4953350;28;20490;-71
2022/05/19 08:33:39;;;;;;;9.47;7.30;;;;;;;-145.18;100.00;46541.25;4970713;28;20102;-71
2022/05/19 08:36:05;;;;;;;12.47;8.10;;;;;;;-145.18;100.00;46539.28;4969906;28;20039;-71
2022/05/19 08:38:31;;;;;;;12.40;7.37;;;;;;;-145.18;100.00;46531.47;4970637;28;20340;-71
2022/05/19 08:41:19;;;;;;;10.23;8.13;;;;;;;-145.18;100.00;46525.63;4970263;28;20464;-71
2022/05/19 08:43:53;;;;;;;12.57;7.83;;;;;;;-145.18;100.00;46529.53;4970609;28;20132;-71
2022/05/19 08:46:23;;;;;;;10.10;8.30;;;;;;;-145.18;100.00;46541.25;4970219;28;20035;-71
2022/05/19 08:48:55;;;;;;;12.07;8.00;;;;;;;-145.18;100.00;46531.47;4969764;28;20031;-71
2022/05/19 08:51:24;;;;;;;12.70;8.70;;;;;;;-145.18;100.00;46541.25;4970759;28;20117;-71
2022/05/19 08:53:50;;;;;;;9.63;8.47;;;;;;;-145.18;100.00;46545.16;4970533;28;20648;-71
2022/05/19 08:56:22;;;;;;;13.33;8.53;;;;;;;-145.18;100.00;46547.09;4970527;28;20043;-71
2022/05/19 08:59:12;;;;;;;9.50;7.80;;;;;;;-145.18;100.00;46539.28;4967215;28;20471;-71
2022/05/19 09:01:50;;;;;;;9.47;7.97;;;;;;;-145.18;100.00;46533.44;4970599;28;20054;-71
2022/05/19 09:04:34;;;;;;;10.90;8.27;;;;;;;-145.18;100.00;46533.44;4968565;28;20038;-71
2022/05/19 09:10:59;;;;;;;13.53;8.63;;;;;;;-145.18;100.00;46519.75;4973334;28;20199;-71
2022/05/19 09:13:51;;;;;;;12.45;9.52;;;;;;;-145.18;100.00;46523.66;4913527;29;20044;-71
2022/05/19 09:16:23;;;;;;;11.82;9.07;;;;;;;-145.18;100.00;46547.09;4971833;28;20403;-71
2022/05/19 09:18:58;;;;;;;14.02;9.20;;;;;;;-145.18;100.00;46523.66;4973249;28;20038;-71
2022/05/19 09:21:24;;;;;;;12.80;9.45;;;;;;;-145.18;100.00;46527.56;4952591;29;20039;-71
2022/05/19 09:23:49;;;;;;;10.90;9.63;;;;;;;-145.18;100.00;46531.47;4976209;28;20105;-71
2022/05/19 09:26:52;;;;;;;11.77;9.80;;;;;;;-145.18;100.00;46506.09;4973649;28;20039;-71
2022/05/19 09:29:32;;;;;;;11.65;9.88;;;;;;;-145.18;100.00;46480.69;4972074;28;20046;-71
2022/05/19 09:32:22;;;;;;;14.68;10.73;;;;;;;-145.18;100.00;46508.03;4973735;28;20427;-71
2022/05/19 09:34:50;;;;;;;13.10;10.55;;;;;;;-145.18;100.00;46519.75;4972347;28;20039;-71
2022/05/19 09:37:35;;;;;;;13.07;10.20;;;;;;;-145.18;100.00;46498.28;4973403;28;20041;-71
2022/05/19 09:40:14;;;;;;;15.30;10.68;;;;;;;-145.18;100.00;46439.69;4972340;28;20476;-71
2022/05/19 09:42:56;;;;;;;11.75;10.38;;;;;;;-145.18;100.00;46560.78;4973392;28;20060;-72
2022/05/19 09:45:27;;;;;;;14.57;11.05;;;;;;;-145.18;100.00;46691.66;4972802;28;20031;-72
2022/05/19 09:48:05;;;;;;;11.35;10.15;;;;;;;-145.18;100.00;47056.94;4973412;28;20046;-71
2022/05/19 09:50:37;;;;;;;11.27;10.07;;;;;;;-145.18;100.00;47060.84;4972408;28;20043;-71
2022/05/19 09:53:05;;;;;;;12.38;10.70;;;;;;;-145.18;100.00;47023.72;4972901;28;20162;-72
2022/05/19 09:55:32;;;;;;;12.70;11.40;;;;;;;-145.18;100.00;47033.50;4972029;28;20046;-71
2022/05/19 09:58:02;;;;;;;12.35;10.98;;;;;;;-145.18;100.00;47031.53;4972737;28;20079;-71
2022/05/19 10:00:37;;;;;;;16.85;11.48;;;;;;;-145.18;100.00;47002.25;4972812;28;20110;-71
2022/05/19 10:03:08;;;;;;;13.48;11.40;;;;;;;-145.18;100.00;47062.81;4972324;28;20046;-71
2022/05/19 10:05:43;;;;;;;12.10;10.32;;;;;;;-145.18;100.00;47021.78;4972526;28;20117;-72
2022/05/19 10:08:19;;;;;;;16.42;11.60;;;;;;;-145.18;100.00;46969.03;4972835;28;20098;-72
2022/05/19 10:11:23;;;;;;;12.77;11.48;;;;;;;-145.18;100.00;46961.22;4972571;28;20287;-72
2022/05/19 10:13:52;;;;;;;15.68;12.48;;;;;;;-145.18;100.00;46945.59;4953223;28;20518;-71
2022/05/19 10:16:53;;;;;;;14.70;11.85;;;;;;;-145.18;100.00;46941.69;4962047;28;20027;-72
2022/05/19 10:19:39;;;;;;;14.50;10.55;;;;;;;-145.18;100.00;46918.25;4971191;28;20538;-72
2022/05/19 10:22:10;;;;;;;;;;;;;;;-145.18;100.00;46937.78;4972216;28;20038;-72
2022/05/19 10:24:48;;;;;;;13.52;11.32;;;;;;;-145.18;100.00;46974.91;4971827;28;19949;-72
2022/05/19 10:33:14;;;;;;;15.20;11.82;;;;;;;-145.18;100.00;47103.81;4972474;28;20049;-71
2022/05/19 10:35:54;;;;;;;17.27;12.13;;;;;;;-145.18;100.00;47035.44;4971925;28;20065;-71
2022/05/19 10:38:43;;;;;;;13.43;11.95;;;;;;;-145.18;100.00;46672.13;4972293;28;20607;-72
2022/05/19 10:41:34;;;;;;;13.38;11.93;;;;;;;-145.18;100.00;46695.56;4972174;28;20034;-72
2022/05/19 10:44:18;;;;;;;15.43;12.50;;;;;;;-145.18;100.00;46580.31;4971701;28;20027;-71
2022/05/19 10:47:14;;;;;;;15.88;13.13;;;;;;;-145.18;100.00;46597.88;4972217;28;20027;-71
2022/05/19 10:50:05;;;;;;;22.90;14.20;;;;;;;-145.18;100.00;46572.50;4971613;28;20050;-71
2022/05/19 10:52:55;;;;;;;15.90;12.85;;;;;;;-145.18;100.00;46574.44;4971663;28;20039;-72
2022/05/19 10:55:30;;;;;;;13.43;12.02;;;;;;;-145.18;100.00;46580.31;4971205;28;20019;-71
2022/05/19 10:58:46;;;;;;;17.50;12.82;;;;;;;-145.18;100.00;46564.69;4971855;28;20543;-72
2022/05/19 11:01:22;;;;;;;18.70;12.70;;;;;;;-145.18;100.00;46580.31;4934563;28;20049;-71
2022/05/19 11:04:06;;;;;;;14.90;12.00;;;;;;;-145.18;100.00;46554.91;4971570;28;20047;-71
2022/05/19 11:06:52;;;;;;;16.38;13.70;;;;;;;-145.18;100.00;46566.63;4971933;28;20042;-71
2022/05/19 11:09:51;;;;;;;18.47;15.87;;;;;;;-145.18;100.00;46568.59;4970838;28;20050;-71
2022/05/19 11:12:22;;;;;;;27.17;18.17;;;;;;;-145.18;100.00;46646.72;4968034;28;20039;-71
2022/05/19 11:15:31;;;;;;;22.70;17.53;;;;;;;-145.18;100.00;46685.78;4971194;28;20502;-71
2022/05/19 11:18:03;;;;;;;24.43;19.03;;;;;;;-145.18;100.00;46697.50;4950427;28;20133;-72
2022/05/19 11:20:37;;;;;;;18.63;9.63;;;;;;;-145.18;100.00;46666.25;4970501;28;20049;-76
2022/05/19 11:23:14;;;;;;;17.47;5.87;;;;;;;-145.18;100.00;46642.81;4970813;28;20026;-83
2022/05/19 11:28:43;;;;;;;19.07;4.40;;;;;;;-145.18;100.00;46648.69;4969968;28;20529;-76
2022/05/19 11:31:14;;;;;;;19.20;4.70;;;;;;;-145.19;100.00;57938.22;4970532;28;20022;-77
2022/05/19 11:33:44;;;;;;;9.60;4.30;;;;;;;-145.19;100.00;57938.22;4971314;28;20031;-73
2022/05/19 11:36:22;;;;;;;6.13;4.40;;;;;;;-145.19;100.00;57938.22;4971286;28;20034;-72